KTVI/TVI METAR and TAF weather

Enter ICAO airport designator
Station Type Date Time Source
KTVI METAR 2022/01/19 19:35 UTC NOAA

KTVI 191935Z AUTO 25004KT 10SM CLR 18/M02 A3020 RMK AO2


Station Type Date Time Source
KTVI Decoded METAR 2022/01/19 19:35 UTC NOAA

Thomasville, GA, United States (KTVI) 30-54-06N 083-52-53W
Jan 19, 2022 - 02:35 PM EST / 2022.01.19 1935 UTC
Wind: from the WSW (250 degrees) at 5 MPH (4 KT):0
Visibility: 10 mile(s):0
Sky conditions: clear
Temperature: 64 F (18 C)
Dew Point: 28 F (-2 C)
Relative Humidity: 25%
Pressure (altimeter): 30.2 in. Hg (1022 hPa)
ob: KTVI 191935Z AUTO 25004KT 10SM CLR 18/M02 A3020 RMK AO2
cycle: 19

Station Type Date Time Source
KTVI TAF UTC NOAA

Error!

Example: see airport list